Time;durP1;ratioP1;P1;durP2;ratioP2;P2;SDS_P1;SDS_P2;PMS_P1;PMS_P2;Temp;Humidity;BMP_temperature;BMP_pressure;BME280_temperature;BME280_humidity;BME280_pressure;Samples;Min_cycle;Max_cycle;Signal;HPM_P1;HPM_P2
2021/05/27 00:02:20;;;;;;;11.87;9.63;;;11.50;99.90;;;;;;5056585;28;20592;-73
2021/05/27 00:04:45;;;;;;;9.77;8.73;;;11.50;99.90;;;;;;5054175;28;20202;-72
2021/05/27 00:07:11;;;;;;;12.20;10.20;;;11.60;99.90;;;;;;5054566;28;20182;-73
2021/05/27 00:09:37;;;;;;;11.40;9.60;;;11.60;99.90;;;;;;5054729;28;20174;-72
2021/05/27 00:12:02;;;;;;;11.00;9.77;;;11.50;99.90;;;;;;5054691;28;20416;-72
2021/05/27 00:14:28;;;;;;;12.57;9.83;;;11.50;99.90;;;;;;5055581;28;20202;-72
2021/05/27 00:16:54;;;;;;;10.40;9.00;;;11.50;99.90;;;;;;5063026;28;20178;-72
2021/05/27 00:19:20;;;;;;;11.17;10.07;;;11.60;99.90;;;;;;5064020;28;20240;-72
2021/05/27 00:21:46;;;;;;;13.50;11.07;;;11.60;99.90;;;;;;5062957;28;20953;-72
2021/05/27 00:24:11;;;;;;;12.60;10.80;;;11.50;99.90;;;;;;5054068;28;20197;-71
2021/05/27 00:26:40;;;;;;;13.50;12.15;;;11.50;99.90;;;;;;5046431;28;20416;-71
2021/05/27 00:29:06;;;;;;;12.43;11.13;;;11.40;99.90;;;;;;5059870;28;20165;-72
2021/05/27 00:31:31;;;;;;;13.27;11.10;;;11.50;99.90;;;;;;5058943;28;20416;-71
2021/05/27 00:33:57;;;;;;;13.27;11.87;;;11.50;99.90;;;;;;5057172;28;20419;-72
2021/05/27 00:36:22;;;;;;;13.50;11.80;;;11.60;99.90;;;;;;5056343;28;20444;-72
2021/05/27 00:38:48;;;;;;;12.70;11.20;;;11.60;99.90;;;;;;5055742;28;20244;-72
2021/05/27 00:41:13;;;;;;;12.93;11.63;;;11.60;99.90;;;;;;5056037;28;20199;-72
2021/05/27 00:43:39;;;;;;;11.63;10.07;;;11.60;99.90;;;;;;5056197;28;20246;-72
2021/05/27 00:46:04;;;;;;;12.37;11.00;;;11.60;99.90;;;;;;5056152;28;20674;-72
2021/05/27 00:51:14;;;;;;;14.97;13.37;;;11.60;99.90;;;;;;5056169;28;20277;-71
2021/05/27 00:53:39;;;;;;;13.80;12.40;;;11.60;99.90;;;;;;5055778;28;20440;-72
2021/05/27 00:56:05;;;;;;;15.90;11.60;;;11.50;99.90;;;;;;5054996;28;20535;-72
2021/05/27 00:58:31;;;;;;;14.87;12.00;;;11.60;99.90;;;;;;5055433;28;20182;-72
2021/05/27 01:00:57;;;;;;;16.07;12.43;;;11.60;99.90;;;;;;5055658;28;20388;-71
2021/05/27 01:03:22;;;;;;;13.37;12.00;;;11.60;99.90;;;;;;5055368;28;20527;-72
2021/05/27 01:05:48;;;;;;;13.00;11.70;;;11.60;99.90;;;;;;5055631;28;20190;-71
2021/05/27 01:08:14;;;;;;;13.10;11.47;;;11.70;99.90;;;;;;5055843;28;20166;-72
2021/05/27 01:10:40;;;;;;;17.93;11.93;;;11.70;99.90;;;;;;5048073;28;20182;-72
2021/05/27 01:13:06;;;;;;;12.13;10.93;;;11.60;99.90;;;;;;5043249;28;20445;-71
2021/05/27 01:15:32;;;;;;;17.43;10.13;;;11.60;99.90;;;;;;5047089;28;20598;-73
2021/05/27 01:18:17;;;;;;;13.10;10.13;;;11.60;99.90;;;;;;5037579;28;20528;-73
2021/05/27 01:20:48;;;;;;;12.10;10.57;;;11.60;99.90;;;;;;5035699;28;20463;-71
2021/05/27 01:23:14;;;;;;;10.80;9.60;;;11.60;99.90;;;;;;5035545;28;20397;-71
2021/05/27 01:25:49;;;;;;;10.30;9.20;;;11.60;99.90;;;;;;5042354;28;20470;-70
2021/05/27 01:28:15;;;;;;;11.37;10.10;;;11.60;99.90;;;;;;5043630;28;20405;-72
2021/05/27 01:30:42;;;;;;;11.57;10.00;;;11.60;99.90;;;;;;5052033;28;20429;-72
2021/05/27 01:33:12;;;;;;;11.07;9.87;;;11.50;99.90;;;;;;5054942;28;20413;-72
2021/05/27 01:35:38;;;;;;;12.60;10.50;;;11.40;99.90;;;;;;5055069;28;20472;-71
2021/05/27 01:38:21;;;;;;;11.50;9.20;;;11.40;99.90;;;;;;5055202;28;20417;-72
2021/05/27 01:40:47;;;;;;;10.03;9.10;;;11.40;99.90;;;;;;5054898;28;20459;-72
2021/05/27 01:43:14;;;;;;;13.53;9.37;;;11.50;99.90;;;;;;5055446;28;20401;-72
2021/05/27 01:45:40;;;;;;;12.40;11.10;;;11.50;99.90;;;;;;5054846;28;20435;-71
2021/05/27 01:48:07;;;;;;;10.50;9.40;;;11.50;99.90;;;;;;5053731;28;20779;-72
2021/05/27 01:50:33;;;;;;;12.13;9.80;;;11.50;99.90;;;;;;5062098;28;20409;-70
2021/05/27 01:53:04;;;;;;;11.03;9.87;;;11.40;99.90;;;;;;5062434;28;20441;-72
2021/05/27 01:55:30;;;;;;;10.23;9.17;;;11.30;99.90;;;;;;5054248;28;20433;-72
2021/05/27 01:57:58;;;;;;;10.50;9.07;;;11.40;99.90;;;;;;5054822;28;20804;-72
2021/05/27 02:00:25;;;;;;;13.03;10.83;;;11.40;99.90;;;;;;5055756;28;20467;-72
2021/05/27 02:02:50;;;;;;;11.47;9.07;;;11.40;99.90;;;;;;5055172;28;20424;-72
2021/05/27 02:05:16;;;;;;;11.50;10.40;;;11.40;99.90;;;;;;5055321;28;20917;-71
2021/05/27 02:07:43;;;;;;;10.30;9.20;;;11.40;99.90;;;;;;5055006;28;20627;-71
2021/05/27 02:10:09;;;;;;;10.33;9.27;;;11.50;99.90;;;;;;5054819;28;20162;-72
2021/05/27 02:12:35;;;;;;;10.70;9.60;;;11.50;99.90;;;;;;5055291;28;20424;-72
2021/05/27 02:15:00;;;;;;;13.83;9.97;;;11.50;99.90;;;;;;5055159;28;20421;-72
2021/05/27 02:17:26;;;;;;;17.67;11.53;;;11.50;99.90;;;;;;5049424;28;20285;-72
2021/05/27 02:19:51;;;;;;;12.60;11.20;;;11.50;99.90;;;;;;5039114;28;20186;-71
2021/05/27 02:22:17;;;;;;;13.77;11.27;;;11.60;99.90;;;;;;5041871;28;20211;-71
2021/05/27 02:24:43;;;;;;;14.20;11.90;;;11.60;99.90;;;;;;5060959;28;20256;-71
2021/05/27 02:27:08;;;;;;;14.50;11.40;;;11.50;99.90;;;;;;5065219;28;20173;-70
2021/05/27 02:29:34;;;;;;;13.57;11.90;;;11.40;99.90;;;;;;5065362;28;20171;-70
2021/05/27 02:32:00;;;;;;;13.47;12.07;;;11.40;99.90;;;;;;5064029;28;20261;-70
2021/05/27 02:34:25;;;;;;;16.20;11.70;;;11.30;99.90;;;;;;5064683;28;20182;-70
2021/05/27 02:36:51;;;;;;;14.67;13.20;;;11.30;99.90;;;;;;5059616;28;20178;-71
2021/05/27 02:39:18;;;;;;;17.63;13.00;;;11.30;99.90;;;;;;5060730;28;20177;-71
2021/05/27 02:41:43;;;;;;;13.93;12.43;;;11.30;99.90;;;;;;5059562;28;20202;-70
2021/05/27 02:44:09;;;;;;;14.93;13.37;;;11.40;99.90;;;;;;5064836;28;20415;-71
2021/05/27 02:46:34;;;;;;;16.60;12.87;;;11.40;99.90;;;;;;5064314;28;20508;-71
2021/05/27 02:49:00;;;;;;;15.10;13.50;;;11.50;99.90;;;;;;5061690;28;20462;-72
2021/05/27 02:51:26;;;;;;;16.20;14.50;;;11.40;99.90;;;;;;5056669;28;20171;-71
2021/05/27 02:53:51;;;;;;;19.17;14.43;;;11.40;99.90;;;;;;5056610;28;20663;-71
2021/05/27 02:56:17;;;;;;;14.50;12.67;;;11.50;99.90;;;;;;5053661;28;20615;-71
2021/05/27 02:58:43;;;;;;;15.03;13.43;;;11.50;99.90;;;;;;5053756;28;20186;-71
2021/05/27 03:01:10;;;;;;;15.20;11.60;;;11.60;99.90;;;;;;5054056;28;20541;-71
2021/05/27 03:03:36;;;;;;;16.23;13.50;;;11.60;99.90;;;;;;5053924;28;20416;-71
2021/05/27 03:06:02;;;;;;;14.47;12.97;;;11.50;99.90;;;;;;5050291;28;20432;-73
2021/05/27 03:08:28;;;;;;;17.63;13.47;;;11.40;99.90;;;;;;5044351;28;20425;-71
2021/05/27 03:10:54;;;;;;;14.97;13.40;;;11.30;99.90;;;;;;5033890;28;20258;-72
2021/05/27 03:13:19;;;;;;;14.60;12.67;;;11.40;99.90;;;;;;5033023;28;20903;-72
2021/05/27 03:15:45;;;;;;;15.20;12.70;;;11.40;99.90;;;;;;5033531;28;20249;-71
2021/05/27 03:18:10;;;;;;;13.90;12.43;;;11.40;99.90;;;;;;5053039;28;20570;-72
2021/05/27 03:20:37;;;;;;;15.50;12.80;;;11.40;99.90;;;;;;5052879;28;20213;-72
2021/05/27 03:23:04;;;;;;;14.40;12.30;;;11.30;99.90;;;;;;5053668;28;20221;-71
2021/05/27 03:25:29;;;;;;;14.53;11.40;;;11.20;99.90;;;;;;5053422;28;20425;-71
2021/05/27 03:27:55;;;;;;;12.13;10.90;;;11.20;99.90;;;;;;5053767;28;20427;-71
2021/05/27 03:30:21;;;;;;;12.03;10.83;;;11.20;99.90;;;;;;5053634;28;20170;-71
2021/05/27 03:32:47;;;;;;;13.33;10.67;;;11.20;99.90;;;;;;5052908;28;20213;-72
2021/05/27 03:35:22;;;;;;;12.33;9.73;;;11.30;99.90;;;;;;5053153;28;20559;-71
2021/05/27 03:37:48;;;;;;;11.43;9.60;;;11.30;99.90;;;;;;5052574;28;20180;-72
2021/05/27 03:40:14;;;;;;;11.40;9.33;;;11.30;99.90;;;;;;5053598;28;20874;-72
2021/05/27 03:42:42;;;;;;;12.10;9.93;;;11.10;99.90;;;;;;5053215;28;20273;-72
2021/05/27 03:45:12;;;;;;;10.27;9.17;;;11.10;99.90;;;;;;5053371;28;20935;-72
2021/05/27 03:47:39;;;;;;;10.83;9.27;;;11.10;99.90;;;;;;5053794;28;20393;-72
2021/05/27 03:50:07;;;;;;;11.03;9.60;;;11.00;99.90;;;;;;5052554;28;20433;-73
2021/05/27 03:52:33;;;;;;;14.53;9.40;;;10.90;99.90;;;;;;5052946;28;20900;-73
2021/05/27 03:54:59;;;;;;;13.63;8.33;;;10.80;99.90;;;;;;5053516;28;20424;-73
2021/05/27 03:57:25;;;;;;;13.33;10.00;;;10.90;99.90;;;;;;5053183;28;20181;-71
2021/05/27 04:02:40;;;;;;;10.83;9.23;;;11.00;99.90;;;;;;5051414;28;20292;-72
2021/05/27 04:07:50;;;;;;;15.43;11.13;;;11.10;99.90;;;;;;5052851;28;20411;-72
2021/05/27 04:10:15;;;;;;;14.10;10.90;;;11.00;99.90;;;;;;5051749;28;20448;-72
2021/05/27 04:12:47;;;;;;;17.23;10.67;;;11.00;99.90;;;;;;5045047;28;20460;-71
2021/05/27 04:15:24;;;;;;;16.30;10.97;;;11.00;99.90;;;;;;5033400;28;20254;-72
2021/05/27 04:17:55;;;;;;;14.63;11.00;;;10.90;99.90;;;;;;5032988;28;20386;-72
2021/05/27 04:20:23;;;;;;;13.93;10.80;;;10.80;99.90;;;;;;5042350;28;20416;-71
2021/05/27 04:22:49;;;;;;;13.47;10.70;;;10.70;99.90;;;;;;5041985;28;20437;-72
2021/05/27 04:25:16;;;;;;;15.77;10.87;;;10.80;99.90;;;;;;5042370;28;20492;-72
2021/05/27 04:27:43;;;;;;;15.73;12.00;;;10.80;99.90;;;;;;5043983;28;20448;-72
2021/05/27 04:30:13;;;;;;;15.87;10.70;;;10.80;99.90;;;;;;5032988;28;20409;-71
2021/05/27 04:35:19;;;;;;;14.63;11.03;;;10.90;99.90;;;;;;5045056;28;20957;-72
2021/05/27 04:37:44;;;;;;;17.17;12.43;;;10.90;99.90;;;;;;5044345;28;20542;-72
2021/05/27 04:40:11;;;;;;;18.43;11.87;;;10.90;99.90;;;;;;5063147;28;20174;-73
2021/05/27 04:42:36;;;;;;;15.73;11.47;;;10.90;99.90;;;;;;5045165;28;20691;-72
2021/05/27 04:45:03;;;;;;;18.27;11.10;;;10.90;99.90;;;;;;5047782;28;20445;-72
2021/05/27 04:47:28;;;;;;;12.43;9.90;;;10.90;99.90;;;;;;5054781;28;20222;-72
2021/05/27 04:49:54;;;;;;;14.93;10.37;;;10.90;99.90;;;;;;5050025;28;20463;-72
2021/05/27 04:52:19;;;;;;;13.00;9.90;;;10.90;99.90;;;;;;5041897;28;20645;-72
2021/05/27 04:54:45;;;;;;;13.80;10.17;;;11.00;99.90;;;;;;5054127;28;20313;-71
2021/05/27 04:57:10;;;;;;;16.77;11.80;;;11.00;99.90;;;;;;5074089;28;20178;-72
2021/05/27 04:59:36;;;;;;;14.57;11.20;;;11.10;99.90;;;;;;5075547;28;20741;-72
2021/05/27 05:02:02;;;;;;;15.30;11.73;;;10.90;99.90;;;;;;5074489;28;20209;-72
2021/05/27 05:04:27;;;;;;;14.90;10.87;;;11.00;99.90;;;;;;5058151;28;20512;-72
2021/05/27 05:06:53;;;;;;;16.00;11.30;;;10.90;99.90;;;;;;5054986;28;20420;-72
2021/05/27 05:09:18;;;;;;;16.07;9.77;;;11.00;99.90;;;;;;5055475;28;20466;-71
2021/05/27 05:11:44;;;;;;;18.23;11.83;;;11.00;99.90;;;;;;5057799;28;20186;-71
2021/05/27 05:14:09;;;;;;;14.83;9.83;;;11.00;99.90;;;;;;5057896;28;20226;-73
2021/05/27 05:16:35;;;;;;;12.87;10.30;;;10.90;99.90;;;;;;5045733;28;20202;-71
2021/05/27 05:19:00;;;;;;;14.93;10.73;;;11.00;99.90;;;;;;5060240;28;20200;-71
2021/05/27 05:21:26;;;;;;;15.77;11.10;;;11.00;99.90;;;;;;5052027;28;20217;-71
2021/05/27 05:23:51;;;;;;;14.77;10.60;;;11.00;99.90;;;;;;5060236;28;20185;-73
2021/05/27 05:26:17;;;;;;;15.67;11.23;;;10.90;99.90;;;;;;5052399;28;20318;-72
2021/05/27 05:28:42;;;;;;;13.83;10.70;;;10.90;99.90;;;;;;5061461;28;20181;-72
2021/05/27 05:31:08;;;;;;;16.37;12.37;;;10.80;99.90;;;;;;5059177;28;20206;-72
2021/05/27 05:33:33;;;;;;;18.33;12.27;;;10.70;99.90;;;;;;5060489;28;20186;-72
2021/05/27 05:35:59;;;;;;;17.17;11.30;;;10.70;99.90;;;;;;5062546;28;20206;-72
2021/05/27 05:38:24;;;;;;;17.63;11.73;;;10.70;99.90;;;;;;5067960;28;20173;-71
2021/05/27 05:40:50;;;;;;;16.07;11.80;;;10.80;99.90;;;;;;5065181;28;20648;-72
2021/05/27 05:43:16;;;;;;;19.43;12.17;;;10.90;99.90;;;;;;5067920;28;20213;-72
2021/05/27 05:45:41;;;;;;;16.00;12.10;;;10.90;99.90;;;;;;5053932;28;20300;-71
2021/05/27 05:48:08;;;;;;;20.20;12.13;;;10.90;99.90;;;;;;5061813;28;20487;-72
2021/05/27 05:50:56;;;;;;;21.33;12.33;;;10.90;99.90;;;;;;5051131;28;20286;-72
2021/05/27 05:53:23;;;;;;;16.00;12.37;;;10.90;99.90;;;;;;5068594;28;20569;-72
2021/05/27 05:55:53;;;;;;;19.33;13.27;;;10.90;99.90;;;;;;5071292;28;20443;-72
2021/05/27 05:58:19;;;;;;;16.70;12.90;;;10.80;99.90;;;;;;5067133;28;20428;-72
2021/05/27 06:00:45;;;;;;;22.27;14.30;;;10.70;99.90;;;;;;5054203;28;20534;-72
2021/05/27 06:03:12;;;;;;;24.57;14.50;;;10.80;99.90;;;;;;5042623;28;21063;-72
2021/05/27 06:05:37;;;;;;;23.23;15.30;;;10.80;99.90;;;;;;5050698;28;20451;-74
2021/05/27 06:08:03;;;;;;;21.53;15.30;;;10.80;99.90;;;;;;5050721;28;20420;-72
2021/05/27 06:10:29;;;;;;;21.03;14.67;;;10.90;99.90;;;;;;5059619;28;20200;-72
2021/05/27 06:12:56;;;;;;;18.23;13.47;;;10.90;99.90;;;;;;5065781;28;20179;-73
2021/05/27 06:15:23;;;;;;;19.73;14.67;;;10.90;99.90;;;;;;5086025;28;20268;-71
2021/05/27 06:17:51;;;;;;;21.10;14.63;;;10.90;99.90;;;;;;5086906;28;20436;-73
2021/05/27 06:20:18;;;;;;;24.17;17.60;;;10.80;99.90;;;;;;5070900;28;20471;-71
2021/05/27 06:22:44;;;;;;;21.80;15.83;;;10.90;99.90;;;;;;5070195;28;20287;-72
2021/05/27 06:25:10;;;;;;;20.60;14.73;;;10.80;99.90;;;;;;5067204;28;21010;-71
2021/05/27 06:27:36;;;;;;;23.77;14.80;;;10.70;99.90;;;;;;5055825;28;20277;-73
2021/05/27 06:30:03;;;;;;;24.93;15.20;;;10.70;99.90;;;;;;5061709;28;20439;-73
2021/05/27 06:32:31;;;;;;;16.93;13.10;;;10.60;99.90;;;;;;5071080;28;20545;-74
2021/05/27 06:34:56;;;;;;;18.93;15.23;;;10.60;99.90;;;;;;5057813;28;20455;-72
2021/05/27 06:37:22;;;;;;;16.30;11.57;;;10.70;99.90;;;;;;5067184;28;20424;-72
2021/05/27 06:39:48;;;;;;;16.20;10.70;;;10.70;99.90;;;;;;5071281;28;20188;-72
2021/05/27 06:42:13;;;;;;;22.80;13.97;;;10.90;99.90;;;;;;5069652;28;20189;-72
2021/05/27 06:44:39;;;;;;;16.07;12.90;;;10.80;99.90;;;;;;5055851;28;20638;-71
2021/05/27 06:47:05;;;;;;;15.30;12.30;;;10.70;99.90;;;;;;5056712;28;20173;-72
2021/05/27 06:49:33;;;;;;;17.83;12.07;;;10.60;99.90;;;;;;5053579;28;20413;-72
2021/05/27 06:52:00;;;;;;;19.13;12.50;;;10.70;99.90;;;;;;5051816;28;20166;-73
2021/05/27 06:54:26;;;;;;;16.20;12.30;;;10.70;99.90;;;;;;5050145;28;20538;-72
2021/05/27 06:56:54;;;;;;;16.43;11.60;;;10.70;99.90;;;;;;5051596;28;20852;-72
2021/05/27 06:59:20;;;;;;;14.63;10.80;;;10.80;99.90;;;;;;5052013;28;20526;-72
2021/05/27 07:01:46;;;;;;;15.53;11.40;;;10.80;99.90;;;;;;5052524;28;20462;-71
2021/05/27 07:04:11;;;;;;;15.10;11.50;;;11.00;99.90;;;;;;5054082;28;20166;-72
2021/05/27 07:06:37;;;;;;;14.90;11.33;;;11.10;99.90;;;;;;5052694;28;20170;-71
2021/05/27 07:09:04;;;;;;;14.87;11.87;;;11.20;99.90;;;;;;5054571;28;20229;-71
2021/05/27 07:11:29;;;;;;;14.80;11.60;;;11.30;99.90;;;;;;5052514;28;20655;-72
2021/05/27 07:13:55;;;;;;;13.10;10.73;;;11.20;99.90;;;;;;5054092;28;20435;-72
2021/05/27 07:16:21;;;;;;;13.93;10.13;;;11.10;99.90;;;;;;5053418;28;20615;-72
2021/05/27 07:18:46;;;;;;;15.57;9.20;;;11.00;99.90;;;;;;5053974;28;20162;-72
2021/05/27 07:21:12;;;;;;;16.50;11.23;;;10.90;99.90;;;;;;5054125;28;20204;-72
2021/05/27 07:23:37;;;;;;;12.77;10.00;;;10.90;99.90;;;;;;5053760;28;20162;-72
2021/05/27 07:26:04;;;;;;;13.87;9.30;;;10.90;99.90;;;;;;5053181;28;20186;-71
2021/05/27 07:28:30;;;;;;;9.30;8.23;;;10.90;99.90;;;;;;5053533;28;20185;-71
2021/05/27 07:30:56;;;;;;;10.77;8.67;;;10.90;99.90;;;;;;5054089;28;20412;-72
2021/05/27 07:33:22;;;;;;;11.40;8.90;;;10.90;99.90;;;;;;5053615;28;20416;-72
2021/05/27 07:35:47;;;;;;;13.27;9.53;;;10.90;99.90;;;;;;5053883;28;20724;-72
2021/05/27 07:38:13;;;;;;;14.03;8.63;;;11.00;99.90;;;;;;5053930;28;20761;-72
2021/05/27 07:40:39;;;;;;;14.90;8.50;;;11.00;99.90;;;;;;5053839;28;20219;-72
2021/05/27 07:43:04;;;;;;;13.50;8.83;;;11.00;99.90;;;;;;5053595;28;20166;-72
2021/05/27 07:45:30;;;;;;;14.00;10.00;;;11.10;99.90;;;;;;5054559;28;20428;-71
2021/05/27 07:47:56;;;;;;;11.57;9.27;;;11.10;99.90;;;;;;5069513;28;20177;-74
2021/05/27 07:50:22;;;;;;;14.37;9.10;;;11.20;99.90;;;;;;5073845;28;20177;-72
2021/05/27 07:52:52;;;;;;;14.23;8.70;;;11.10;99.90;;;;;;5075887;28;20893;-72
2021/05/27 07:55:18;;;;;;;14.40;10.30;;;11.10;99.90;;;;;;5076187;28;20500;-72
2021/05/27 07:57:44;;;;;;;15.57;9.20;;;11.10;99.90;;;;;;5076517;28;20881;-72
2021/05/27 08:00:11;;;;;;;11.07;9.50;;;11.10;99.90;;;;;;5075346;28;20479;-72
2021/05/27 08:02:37;;;;;;;10.73;8.97;;;11.10;99.90;;;;;;5074984;28;20535;-72
2021/05/27 08:05:03;;;;;;;12.77;8.70;;;11.20;99.90;;;;;;5073738;28;20422;-71
2021/05/27 08:07:29;;;;;;;15.17;9.90;;;11.10;99.90;;;;;;5076858;28;20916;-71
2021/05/27 08:09:55;;;;;;;13.47;8.57;;;11.10;99.90;;;;;;5077484;28;20413;-71
2021/05/27 08:12:20;;;;;;;13.00;9.20;;;11.00;99.90;;;;;;5078013;28;20224;-72
2021/05/27 08:14:46;;;;;;;12.37;8.87;;;10.80;99.90;;;;;;5077052;28;20680;-72
2021/05/27 08:17:11;;;;;;;12.27;9.43;;;10.80;99.90;;;;;;5077887;28;20244;-73
2021/05/27 08:19:37;;;;;;;11.90;9.47;;;10.80;99.90;;;;;;5076642;28;20626;-71
2021/05/27 08:22:04;;;;;;;12.60;8.90;;;10.80;99.90;;;;;;5077486;28;20203;-71
2021/05/27 08:24:30;;;;;;;13.73;10.03;;;10.90;99.90;;;;;;5076943;28;20196;-71
2021/05/27 08:26:56;;;;;;;14.03;9.23;;;11.00;99.90;;;;;;5077016;28;20420;-71
2021/05/27 08:29:22;;;;;;;12.40;8.73;;;11.00;99.90;;;;;;5076944;28;20782;-72
2021/05/27 08:31:47;;;;;;;12.30;9.40;;;11.10;99.90;;;;;;5076831;28;20568;-70
2021/05/27 08:34:13;;;;;;;13.20;9.30;;;11.10;99.90;;;;;;5076448;28;20209;-72
2021/05/27 08:36:39;;;;;;;10.63;8.50;;;11.00;99.90;;;;;;5071832;28;20177;-72
2021/05/27 08:39:05;;;;;;;14.02;9.95;;;11.00;99.90;;;;;;5067453;28;20412;-72
2021/05/27 08:41:31;;;;;;;19.27;10.00;;;11.10;99.90;;;;;;5093329;28;20197;-73
2021/05/27 08:43:58;;;;;;;11.07;8.50;;;11.10;99.90;;;;;;5096914;28;20467;-73
2021/05/27 08:46:24;;;;;;;9.65;8.38;;;11.10;99.90;;;;;;5082788;28;20752;-72
2021/05/27 08:48:50;;;;;;;12.93;9.00;;;11.00;99.90;;;;;;5059819;28;20162;-72
2021/05/27 08:51:17;;;;;;;11.10;8.77;;;11.10;99.90;;;;;;5057943;28;20409;-72
2021/05/27 08:53:44;;;;;;;15.67;13.17;;;11.20;99.90;;;;;;5068538;28;20454;-72
2021/05/27 08:56:11;;;;;;;12.80;8.30;;;11.20;99.90;;;;;;5076628;28;20419;-72
2021/05/27 08:58:37;;;;;;;11.93;8.80;;;11.20;99.90;;;;;;5076562;28;20952;-72
2021/05/27 09:01:02;;;;;;;9.37;8.40;;;11.30;99.90;;;;;;5076896;28;20447;-72
2021/05/27 09:03:42;;;;;;;11.00;8.03;;;11.40;99.90;;;;;;5076428;28;20169;-72
2021/05/27 09:06:10;;;;;;;13.07;8.20;;;11.40;99.90;;;;;;5076441;28;20267;-72
2021/05/27 09:08:38;;;;;;;10.77;8.23;;;11.40;99.90;;;;;;5076749;28;20408;-72
2021/05/27 09:11:10;;;;;;;10.63;7.70;;;11.40;99.90;;;;;;5061037;28;20424;-72
2021/05/27 09:13:38;;;;;;;11.33;7.93;;;11.30;99.90;;;;;;5056524;28;20462;-72
2021/05/27 09:16:12;;;;;;;12.37;8.30;;;11.30;99.90;;;;;;5055010;28;20447;-70
2021/05/27 09:18:40;;;;;;;11.47;8.67;;;11.40;99.90;;;;;;5055409;28;20395;-71
2021/05/27 09:21:08;;;;;;;12.40;8.97;;;11.40;99.90;;;;;;5055127;28;20452;-71
2021/05/27 09:23:35;;;;;;;14.13;8.93;;;11.40;99.90;;;;;;5055735;28;20407;-71
2021/05/27 09:26:11;;;;;;;9.27;7.30;;;11.40;99.90;;;;;;5054868;28;20429;-72
2021/05/27 09:28:37;;;;;;;8.60;7.73;;;11.40;99.90;;;;;;5058113;28;20408;-73
2021/05/27 09:31:08;;;;;;;11.17;7.90;;;11.30;99.90;;;;;;5056522;28;20405;-71
2021/05/27 09:33:39;;;;;;;9.77;8.47;;;11.40;99.90;;;;;;5056017;28;20432;-72
2021/05/27 09:36:12;;;;;;;8.77;7.67;;;11.40;99.90;;;;;;5055792;28;20508;-71
2021/05/27 09:38:44;;;;;;;9.33;7.97;;;11.40;99.90;;;;;;5056242;28;20393;-71
2021/05/27 09:41:15;;;;;;;9.20;8.27;;;11.50;99.90;;;;;;5055475;28;20535;-71
2021/05/27 09:43:44;;;;;;;8.87;7.80;;;11.50;99.90;;;;;;5058722;28;20397;-72
2021/05/27 09:46:10;;;;;;;9.17;8.27;;;11.60;99.90;;;;;;5075526;28;20465;-72
2021/05/27 09:48:36;;;;;;;9.83;7.47;;;11.60;99.90;;;;;;5055761;28;20488;-72
2021/05/27 09:51:03;;;;;;;9.67;8.27;;;11.50;99.90;;;;;;5055864;28;20504;-72
2021/05/27 09:53:32;;;;;;;12.32;9.50;;;11.50;99.90;;;;;;5054215;28;20450;-71
2021/05/27 09:56:00;;;;;;;15.47;9.53;;;11.60;99.90;;;;;;5054461;28;20201;-71
2021/05/27 09:58:26;;;;;;;9.77;8.77;;;11.60;99.90;;;;;;5054521;28;20543;-71
2021/05/27 10:00:53;;;;;;;10.90;8.00;;;11.80;99.90;;;;;;5053369;28;20570;-72
2021/05/27 10:03:33;;;;;;;9.67;8.20;;;11.90;99.90;;;;;;5054924;28;20638;-71
2021/05/27 10:06:07;;;;;;;9.10;8.20;;;11.80;99.90;;;;;;5055057;28;20567;-71
2021/05/27 10:08:54;;;;;;;9.30;8.30;;;11.70;99.90;;;;;;5035310;28;20481;-72
2021/05/27 10:11:21;;;;;;;9.67;8.07;;;11.60;99.90;;;;;;5036485;28;20536;-70
2021/05/27 10:13:48;;;;;;;17.40;9.70;;;11.60;99.90;;;;;;5036196;28;20432;-70
2021/05/27 10:16:15;;;;;;;13.43;9.00;;;11.50;99.90;;;;;;5050620;28;20463;-71
2021/05/27 10:18:41;;;;;;;13.30;8.40;;;11.60;99.90;;;;;;5049023;28;20774;-72
2021/05/27 10:21:08;;;;;;;8.80;7.70;;;11.50;99.90;;;;;;5040757;28;20821;-71
2021/05/27 10:23:34;;;;;;;11.53;8.83;;;11.40;99.90;;;;;;5054309;28;20424;-72
2021/05/27 10:25:59;;;;;;;15.03;8.87;;;11.10;99.90;;;;;;5055200;28;20421;-72
2021/05/27 10:28:26;;;;;;;12.53;9.13;;;11.20;99.90;;;;;;5052373;28;20261;-71
2021/05/27 10:30:52;;;;;;;11.73;8.50;;;11.30;99.90;;;;;;5054598;28;20167;-71
2021/05/27 10:33:20;;;;;;;10.17;8.40;;;11.20;99.90;;;;;;5054655;28;20415;-71
2021/05/27 10:35:56;;;;;;;9.60;8.60;;;11.20;99.90;;;;;;5049562;28;20448;-71
2021/05/27 10:38:37;;;;;;;11.30;9.30;;;11.30;99.90;;;;;;5034732;28;20809;-71
2021/05/27 10:41:03;;;;;;;10.63;9.57;;;11.30;99.90;;;;;;5034901;28;20465;-72
2021/05/27 10:43:29;;;;;;;10.20;8.43;;;11.20;99.90;;;;;;5034824;28;20456;-72
2021/05/27 10:45:58;;;;;;;11.43;8.93;;;11.30;99.90;;;;;;5034645;28;20433;-72
2021/05/27 10:48:31;;;;;;;14.90;9.00;;;11.30;99.90;;;;;;5072100;28;20180;-72
2021/05/27 10:51:18;;;;;;;11.40;9.10;;;11.30;99.90;;;;;;5074104;28;20428;-73
2021/05/27 10:53:44;;;;;;;13.10;9.93;;;11.30;99.90;;;;;;5074724;28;20959;-71
2021/05/27 10:56:17;;;;;;;11.90;10.37;;;11.30;99.90;;;;;;5074199;28;20434;-74
2021/05/27 10:58:48;;;;;;;11.83;9.80;;;11.50;99.90;;;;;;5074616;28;20824;-72
2021/05/27 11:01:19;;;;;;;11.83;10.20;;;11.40;99.90;;;;;;5074523;28;20451;-72
2021/05/27 11:03:54;;;;;;;10.27;9.27;;;11.30;99.90;;;;;;5074343;28;20408;-72
2021/05/27 11:06:33;;;;;;;13.23;11.13;;;11.40;99.90;;;;;;5063920;28;20470;-72
2021/05/27 11:11:40;;;;;;;14.23;11.70;;;11.30;99.90;;;;;;5053160;28;20404;-72
2021/05/27 11:14:16;;;;;;;15.80;10.27;;;11.30;99.90;;;;;;5053660;28;20554;-72
2021/05/27 11:17:07;;;;;;;13.70;10.20;;;11.30;99.90;;;;;;5053886;28;20404;-72
2021/05/27 11:22:58;;;;;;;12.00;9.37;;;11.50;99.90;;;;;;5071729;28;21006;-72
2021/05/27 11:25:28;;;;;;;12.57;9.77;;;11.50;99.90;;;;;;5072051;28;20535;-72
2021/05/27 11:27:55;;;;;;;12.83;9.27;;;11.60;99.90;;;;;;5071559;28;20952;-72
2021/05/27 11:30:40;;;;;;;12.07;8.93;;;11.60;99.90;;;;;;5071160;28;20416;-71
2021/05/27 11:33:14;;;;;;;9.70;8.70;;;11.70;99.90;;;;;;5070986;28;20447;-71
2021/05/27 11:35:40;;;;;;;10.53;9.43;;;11.70;99.90;;;;;;5071530;28;20473;-72
2021/05/27 11:38:10;;;;;;;11.40;9.07;;;11.70;99.90;;;;;;5070843;28;20423;-72
2021/05/27 11:40:45;;;;;;;11.73;9.70;;;11.60;99.90;;;;;;5071780;28;20491;-71
2021/05/27 11:43:11;;;;;;;14.40;10.40;;;11.50;99.90;;;;;;5074979;28;20422;-72
2021/05/27 11:45:51;;;;;;;13.30;10.37;;;11.40;99.90;;;;;;5075297;28;20585;-72
2021/05/27 11:48:26;;;;;;;14.33;10.70;;;11.50;99.90;;;;;;5093166;28;20444;-71
2021/05/27 11:51:04;;;;;;;16.53;10.33;;;11.50;99.90;;;;;;5095715;28;20445;-72
2021/05/27 11:53:48;;;;;;;13.93;10.70;;;11.60;99.90;;;;;;5095376;28;20852;-70
2021/05/27 11:56:38;;;;;;;14.23;10.90;;;11.60;99.90;;;;;;5095216;28;20480;-71
2021/05/27 11:59:09;;;;;;;13.73;12.10;;;11.60;99.90;;;;;;5075660;28;20441;-71
2021/05/27 12:01:35;;;;;;;13.70;12.23;;;11.60;99.90;;;;;;5078335;28;20450;-72
2021/05/27 12:04:05;;;;;;;19.10;13.20;;;11.60;99.90;;;;;;5077102;28;20780;-72
2021/05/27 12:06:52;;;;;;;14.57;11.67;;;11.60;99.90;;;;;;5077390;28;20185;-71
2021/05/27 12:09:36;;;;;;;13.70;11.17;;;11.60;99.90;;;;;;5077619;28;20461;-71
2021/05/27 12:12:26;;;;;;;14.50;11.13;;;11.60;99.90;;;;;;5084077;28;20471;-71
2021/05/27 12:14:58;;;;;;;12.47;10.10;;;11.60;99.90;;;;;;5093959;28;20440;-72
2021/05/27 12:17:32;;;;;;;14.60;10.83;;;11.60;99.90;;;;;;5096127;28;20418;-72
2021/05/27 12:20:04;;;;;;;12.90;10.57;;;11.60;99.90;;;;;;5096718;28;20437;-71
2021/05/27 12:22:49;;;;;;;14.17;10.57;;;11.70;99.90;;;;;;5100451;28;20443;-73
2021/05/27 12:25:19;;;;;;;15.03;11.33;;;11.80;99.90;;;;;;5081568;28;20477;-72
2021/05/27 12:27:46;;;;;;;15.30;11.53;;;11.80;99.90;;;;;;5079691;28;20541;-72
2021/05/27 12:30:20;;;;;;;13.57;11.90;;;11.80;99.90;;;;;;5090593;28;20415;-71
2021/05/27 12:32:47;;;;;;;17.00;11.90;;;11.70;99.90;;;;;;5090384;28;20718;-71
2021/05/27 12:35:23;;;;;;;18.70;12.87;;;11.60;99.90;;;;;;5089968;28;20408;-71
2021/05/27 12:37:49;;;;;;;16.97;13.10;;;11.70;99.90;;;;;;5090533;28;20842;-71
2021/05/27 12:40:24;;;;;;;14.77;13.20;;;11.90;99.90;;;;;;5092525;28;20797;-71
2021/05/27 12:42:51;;;;;;;13.10;11.70;;;11.90;99.90;;;;;;5094426;28;20455;-72
2021/05/27 12:45:38;;;;;;;17.63;12.10;;;12.00;99.90;;;;;;5094459;28;20438;-72
2021/05/27 12:48:04;;;;;;;16.03;13.00;;;12.10;99.90;;;;;;5069876;28;20409;-72
2021/05/27 12:50:30;;;;;;;24.40;13.53;;;12.10;99.90;;;;;;5057299;28;20543;-72
2021/05/27 12:52:56;;;;;;;16.80;13.03;;;12.00;99.90;;;;;;5057895;28;20432;-72